Time;durP1;ratioP1;P1;durP2;ratioP2;P2;SDS_P1;SDS_P2;PMS_P1;PMS_P2;Temp;Humidity;BMP_temperature;BMP_pressure;BME280_temperature;BME280_humidity;BME280_pressure;Samples;Min_cycle;Max_cycle;Signal;HPM_P1;HPM_P2
2021/01/07 00:02:40;;;;;;;3.95;2.95;;;22.50;21.20;25.50;93452.00;;;;10482034;28;74423;-73
2021/01/07 00:07:41;;;;;;;4.18;3.13;;;22.50;21.20;25.50;93466.00;;;;10482420;28;74514;-74
2021/01/07 00:12:41;;;;;;;3.55;2.75;;;22.40;21.10;25.50;93458.00;;;;10482943;28;46729;-73
2021/01/07 00:17:42;;;;;;;2.97;2.38;;;22.40;21.10;25.50;93470.00;;;;10482446;28;65524;-72
2021/01/07 00:22:43;;;;;;;3.83;2.63;;;22.40;21.10;25.40;93458.00;;;;10481693;28;74432;-72
2021/01/07 00:27:43;;;;;;;3.50;2.70;;;22.40;21.10;25.50;93470.00;;;;10484937;28;75357;-73
2021/01/07 00:32:44;;;;;;;3.78;2.80;;;22.40;21.10;25.50;93470.00;;;;10499009;28;54056;-72
2021/01/07 00:37:45;;;;;;;3.70;2.80;;;22.40;21.10;25.40;93463.00;;;;10480549;28;74130;-73
2021/01/07 00:42:45;;;;;;;4.18;2.97;;;22.40;21.10;25.40;93456.00;;;;10480121;28;75053;-73
2021/01/07 00:47:46;;;;;;;3.83;2.85;;;22.40;21.10;25.40;93469.00;;;;10481610;28;58146;-73
2021/01/07 00:52:47;;;;;;;3.17;2.55;;;22.40;21.10;25.40;93467.00;;;;10481146;28;46941;-73
2021/01/07 00:57:47;;;;;;;3.55;2.53;;;22.40;21.20;25.40;93466.00;;;;10480929;28;75056;-73
2021/01/07 01:02:48;;;;;;;4.03;2.85;;;22.40;21.20;25.40;93473.00;;;;10480388;28;73954;-73
2021/01/07 01:07:49;;;;;;;3.97;3.00;;;22.40;21.10;25.40;93462.00;;;;10479839;28;75247;-73
2021/01/07 01:12:49;;;;;;;3.05;2.58;;;22.40;21.20;25.40;93466.00;;;;10479170;28;75329;-73
2021/01/07 01:17:50;;;;;;;3.92;2.90;;;22.40;21.20;25.40;93459.00;;;;10480135;28;55352;-73
2021/01/07 01:22:51;;;;;;;3.38;2.60;;;22.40;21.20;25.40;93449.00;;;;10479179;28;72718;-73
2021/01/07 01:27:51;;;;;;;3.10;2.55;;;22.40;21.20;25.40;93449.00;;;;10479042;28;75013;-73
2021/01/07 01:32:52;;;;;;;3.75;2.92;;;22.40;21.20;25.40;93469.00;;;;10478563;28;74544;-73
2021/01/07 01:37:53;;;;;;;4.00;3.00;;;22.40;21.20;25.40;93476.00;;;;10481398;28;47857;-73
2021/01/07 01:42:54;;;;;;;3.55;2.60;;;22.40;21.20;25.40;93478.00;;;;10479811;28;75388;-73
2021/01/07 01:47:54;;;;;;;3.92;2.80;;;22.40;21.20;25.40;93481.00;;;;10480128;28;58842;-73
2021/01/07 01:52:55;;;;;;;2.95;2.50;;;22.30;21.30;25.40;93488.00;;;;10487107;22;65442;-75
2021/01/07 01:57:58;;;;;;;4.00;2.72;;;22.30;21.20;25.40;93488.00;;;;10416355;28;48413;-75
2021/01/07 02:02:59;;;;;;;3.65;2.78;;;22.30;21.30;25.40;93488.00;;;;10427939;28;53116;-75
2021/01/07 02:08:03;;;;;;;3.15;2.63;;;22.40;21.20;25.40;93475.00;;;;10431240;28;75511;-75
2021/01/07 02:13:04;;;;;;;3.47;2.55;;;22.40;21.20;25.40;93472.00;;;;10434425;28;45326;-75
2021/01/07 02:18:05;;;;;;;3.40;2.78;;;22.40;21.30;25.40;93480.00;;;;10433026;28;47294;-75
2021/01/07 02:23:06;;;;;;;3.47;2.53;;;22.30;21.30;25.40;93474.00;;;;10432241;28;52429;-75
2021/01/07 02:28:08;;;;;;;4.30;2.95;;;22.30;21.20;25.40;93466.00;;;;10433590;28;46962;-75
2021/01/07 02:33:08;;;;;;;4.07;2.90;;;22.30;21.20;25.40;93474.00;;;;10432609;28;47344;-75
2021/01/07 02:38:09;;;;;;;3.35;2.55;;;22.30;21.30;25.40;93465.00;;;;10431468;28;75179;-75
2021/01/07 02:43:10;;;;;;;3.58;2.65;;;22.30;21.30;25.40;93462.00;;;;10431461;28;63696;-75
2021/01/07 02:48:10;;;;;;;3.45;2.67;;;22.30;21.20;25.40;93470.00;;;;10431741;28;74173;-75
2021/01/07 02:53:11;;;;;;;3.55;2.63;;;22.30;21.30;25.40;93459.00;;;;10448026;28;53966;-75
2021/01/07 02:58:12;;;;;;;3.50;2.47;;;22.30;21.30;25.40;93464.00;;;;10432163;28;55597;-75
2021/01/07 03:03:12;;;;;;;2.88;2.45;;;22.30;21.30;25.40;93447.00;;;;10432980;28;73800;-75
2021/01/07 03:08:13;;;;;;;3.35;2.50;;;22.40;21.30;25.40;93454.00;;;;10430926;28;75469;-75
2021/01/07 03:13:13;;;;;;;3.67;2.90;;;22.30;21.30;25.40;93454.00;;;;10430592;28;73624;-75
2021/01/07 03:18:14;;;;;;;3.72;2.67;;;22.40;21.30;25.40;93447.00;;;;10431067;28;75451;-75
2021/01/07 03:23:15;;;;;;;3.92;2.78;;;22.30;21.30;25.40;93449.00;;;;10430099;28;75383;-75
2021/01/07 03:28:16;;;;;;;3.08;2.50;;;22.30;21.30;25.40;93452.00;;;;10430149;28;73459;-75
2021/01/07 03:33:16;;;;;;;3.33;2.30;;;22.30;21.30;25.40;93451.00;;;;10435913;28;46195;-75
2021/01/07 03:38:17;;;;;;;2.95;2.42;;;22.30;21.30;25.40;93446.00;;;;10437429;28;71049;-75
2021/01/07 03:43:18;;;;;;;3.45;2.38;;;22.30;21.30;25.40;93438.00;;;;10436347;28;74585;-75
2021/01/07 03:48:18;;;;;;;2.65;2.22;;;22.30;21.30;25.40;93435.00;;;;10437070;28;74362;-75
2021/01/07 03:53:19;;;;;;;2.60;2.10;;;22.30;21.30;25.40;93436.00;;;;10437367;28;48307;-75
2021/01/07 03:58:20;;;;;;;2.47;1.95;;;22.40;21.40;25.40;93448.00;;;;10438075;28;64854;-75
2021/01/07 04:03:20;;;;;;;2.85;2.00;;;22.30;21.30;25.40;93447.00;;;;10437478;28;47054;-75
2021/01/07 04:08:21;;;;;;;2.63;2.00;;;22.30;21.30;25.30;93439.00;;;;10436120;28;74001;-75
2021/01/07 04:13:22;;;;;;;2.33;2.00;;;22.30;21.30;25.30;93426.00;;;;10434989;28;75383;-75
2021/01/07 04:18:23;;;;;;;2.45;2.00;;;22.30;21.30;25.30;93433.00;;;;10435404;28;47522;-75
2021/01/07 04:23:24;;;;;;;2.50;2.15;;;22.30;21.30;25.40;93433.00;;;;10434488;28;71674;-75
2021/01/07 04:28:24;;;;;;;2.53;2.03;;;22.30;21.30;25.40;93427.00;;;;10434448;28;75295;-75
2021/01/07 04:33:25;;;;;;;2.50;2.00;;;22.30;21.30;25.40;93432.00;;;;10435011;28;74959;-75
2021/01/07 04:38:26;;;;;;;2.42;1.75;;;22.30;21.30;25.40;93430.00;;;;10436372;28;59635;-75
2021/01/07 04:43:27;;;;;;;2.40;1.77;;;22.40;21.30;25.40;93435.00;;;;10435152;28;52896;-75
2021/01/07 04:48:28;;;;;;;2.55;1.90;;;22.40;21.30;25.40;93428.00;;;;10436417;28;57764;-75
2021/01/07 04:53:29;;;;;;;2.28;1.65;;;22.40;21.30;25.50;93430.00;;;;10435489;28;46893;-75
2021/01/07 04:58:30;;;;;;;2.50;2.00;;;22.40;21.30;25.50;93426.00;;;;10435952;28;47529;-75
2021/01/07 05:03:33;;;;;;;1.98;1.50;;;22.50;21.40;25.50;93426.00;;;;10435562;28;45435;-75
2021/01/07 05:08:33;;;;;;;2.47;1.63;;;22.40;21.30;25.50;93422.00;;;;10435493;28;47408;-75
2021/01/07 05:13:34;;;;;;;2.60;1.70;;;22.50;21.40;25.50;93426.00;;;;10434227;28;74265;-75
2021/01/07 05:18:35;;;;;;;2.15;1.65;;;22.50;21.40;25.50;93421.00;;;;10433759;28;73411;-75
2021/01/07 05:23:36;;;;;;;2.03;1.70;;;22.50;21.40;25.50;93425.00;;;;10433900;28;73422;-75
2021/01/07 05:28:38;;;;;;;2.55;1.70;;;22.50;21.40;25.60;93413.00;;;;10434130;28;73950;-75
2021/01/07 05:33:40;;;;;;;2.20;1.63;;;22.50;21.40;25.50;93424.00;;;;10435206;28;50418;-75
2021/01/07 05:38:41;;;;;;;2.33;1.65;;;22.50;21.40;25.60;93427.00;;;;10435652;28;47005;-75
2021/01/07 05:43:45;;;;;;;1.83;1.40;;;22.50;21.50;25.60;93431.00;;;;10434960;28;75629;-75
2021/01/07 05:48:46;;;;;;;2.47;1.65;;;22.50;21.50;25.60;93415.00;;;;10434197;28;46961;-75
2021/01/07 05:53:47;;;;;;;1.45;1.35;;;22.50;21.50;25.60;93417.00;;;;10431366;28;74553;-75
2021/01/07 05:58:50;;;;;;;1.98;1.50;;;22.60;21.50;25.60;93399.00;;;;10433076;28;74336;-75
2021/01/07 06:03:53;;;;;;;1.70;1.50;;;22.50;21.40;25.60;93404.00;;;;10433975;28;46740;-75
2021/01/07 06:08:55;;;;;;;1.50;1.40;;;22.50;21.50;25.60;93412.00;;;;10450306;28;48010;-75
2021/01/07 06:13:57;;;;;;;2.22;1.60;;;22.50;21.50;25.60;93419.00;;;;10432953;28;48414;-75
2021/01/07 06:19:34;;;;;;;2.10;1.60;;;22.60;21.50;25.70;93404.00;;;;10433173;28;71324;-75
2021/01/07 06:24:37;;;;;;;2.45;1.65;;;22.50;21.50;25.60;93409.00;;;;10434487;28;45452;-75
2021/01/07 06:29:38;;;;;;;2.38;1.60;;;22.60;21.50;25.60;93413.00;;;;10433562;28;48004;-75
2021/01/07 06:34:40;;;;;;;1.52;1.20;;;22.50;21.60;25.60;93422.00;;;;10432544;28;74016;-75
2021/01/07 06:39:45;;;;;;;1.90;1.30;;;22.50;21.70;25.60;93417.00;;;;10432391;28;45369;-75
2021/01/07 06:44:46;;;;;;;2.20;1.67;;;22.50;21.70;25.60;93418.00;;;;10432068;28;55401;-75
2021/01/07 06:49:51;;;;;;;1.80;1.40;;;22.50;21.70;25.60;93412.00;;;;10430304;28;75247;-75
2021/01/07 06:54:56;;;;;;;1.52;1.30;;;22.50;21.80;25.60;93427.00;;;;10433967;28;65772;-75
2021/01/07 07:00:04;;;;;;;1.58;1.20;;;22.50;21.70;25.60;93424.00;;;;10434927;28;45627;-76
2021/01/07 07:05:11;;;;;;;2.05;1.42;;;22.50;21.70;25.60;93443.00;;;;10427962;28;47096;-75
2021/01/07 07:10:17;;;;;;;1.85;1.30;;;22.60;21.70;25.60;93447.00;;;;10399679;28;47406;-75
2021/01/07 07:15:23;;;;;;;;;;;22.60;21.70;26.10;93452.00;;;;10402366;28;46232;-75
2021/01/07 07:20:25;;;;;;;1.65;1.35;;;22.60;21.40;25.60;93451.00;;;;10380074;28;47308;-75
2021/01/07 07:25:27;;;;;;;1.70;1.27;;;22.60;21.50;25.60;93444.00;;;;10398115;28;74686;-75
2021/01/07 07:30:29;;;;;;;2.15;1.50;;;22.50;21.60;25.60;93457.00;;;;10399744;28;46460;-75
2021/01/07 07:35:42;;;;;;;2.30;1.50;;;22.50;21.50;25.60;93463.00;;;;10399798;28;47185;-75
2021/01/07 07:40:42;;;;;;;1.95;1.60;;;22.50;21.60;25.60;93464.00;;;;10399235;28;47424;-75
2021/01/07 07:45:43;;;;;;;1.80;1.42;;;22.50;21.60;25.60;93474.00;;;;10398709;28;74507;-76
2021/01/07 07:50:44;;;;;;;2.92;1.52;;;22.60;21.60;25.70;93471.00;;;;10444200;22;74246;-77
2021/01/07 07:55:44;;;;;;;1.95;1.40;;;22.60;21.70;25.80;93470.00;;;;10423221;28;75058;-73
2021/01/07 08:00:53;;;;;;;2.25;1.52;;;22.80;22.20;25.90;93474.00;;;;10442084;28;47458;-77
2021/01/07 08:05:58;;;;;;;1.88;1.45;;;22.80;22.00;26.00;93474.00;;;;10443802;28;47303;-72
2021/01/07 08:11:01;;;;;;;1.98;1.42;;;22.90;22.70;26.00;93464.00;;;;10442208;28;47237;-72
2021/01/07 08:16:02;;;;;;;1.80;1.35;;;22.90;22.60;25.90;93467.00;;;;10442483;28;47092;-74
2021/01/07 08:21:08;;;;;;;1.70;1.40;;;22.90;22.40;26.00;93461.00;;;;10441216;28;48369;-72
2021/01/07 08:26:19;;;;;;;1.88;1.63;;;22.90;22.40;26.00;93475.00;;;;10441913;28;46957;-72
2021/01/07 08:31:27;;;;;;;2.58;1.88;;;22.90;22.20;26.00;93470.00;;;;10441045;28;51774;-74
2021/01/07 08:36:31;;;;;;;1.90;1.60;;;22.90;22.10;25.90;93479.00;;;;10441559;28;47084;-73
2021/01/07 08:41:32;;;;;;;2.20;1.75;;;22.90;22.10;25.90;93475.00;;;;10441522;28;47004;-73
2021/01/07 08:46:42;;;;;;;2.05;1.77;;;22.80;21.90;25.90;93490.00;;;;10441643;28;68451;-73
2021/01/07 08:51:45;;;;;;;2.65;1.95;;;22.90;22.60;25.90;93482.00;;;;10440793;28;48124;-74
2021/01/07 08:56:51;;;;;;;2.92;2.40;;;22.90;21.90;25.90;93488.00;;;;10441492;28;46990;-73
2021/01/07 09:02:06;;;;;;;2.83;2.03;;;22.90;21.90;25.90;93495.00;;;;10440056;28;47071;-73
2021/01/07 09:07:08;;;;;;;2.88;2.25;;;22.80;21.80;25.80;93491.00;;;;10437962;28;47437;-73
2021/01/07 09:12:21;;;;;;;2.53;2.10;;;22.80;21.70;25.90;93494.00;;;;10436804;28;47196;-73
2021/01/07 09:17:40;;;;;;;2.92;2.28;;;22.80;21.80;25.90;93490.00;;;;10437319;28;47964;-72
2021/01/07 09:22:42;;;;;;;2.20;1.80;;;22.80;21.70;25.80;93477.00;;;;10438773;28;45337;-74
2021/01/07 09:27:44;;;;;;;3.08;2.40;;;22.80;21.70;25.80;93480.00;;;;10437223;28;47586;-74
2021/01/07 09:32:44;;;;;;;2.88;2.30;;;22.80;21.70;25.80;93467.00;;;;10436198;28;45720;-73
2021/01/07 09:37:45;;;;;;;2.60;2.20;;;22.80;21.70;25.80;93484.00;;;;10436565;28;69457;-74
2021/01/07 09:42:46;;;;;;;3.20;2.10;;;22.80;21.70;25.80;93487.00;;;;10436277;28;49717;-73
2021/01/07 09:47:46;;;;;;;1.98;1.77;;;22.80;21.70;25.80;93491.00;;;;10435673;28;74222;-73
2021/01/07 09:52:47;;;;;;;2.47;2.00;;;22.80;21.70;25.80;93478.00;;;;10435058;28;75535;-74
2021/01/07 09:57:49;;;;;;;2.63;1.80;;;22.80;21.70;25.80;93487.00;;;;10436563;28;47894;-74
2021/01/07 10:02:50;;;;;;;2.17;1.90;;;22.80;21.60;25.80;93472.00;;;;10436002;28;47524;-74
2021/01/07 10:07:51;;;;;;;2.92;1.80;;;22.80;21.70;25.80;93483.00;;;;10435825;28;51200;-74
2021/01/07 10:12:52;;;;;;;2.55;1.90;;;22.80;21.70;25.80;93473.00;;;;10435119;28;75487;-73
2021/01/07 10:17:53;;;;;;;2.33;1.75;;;22.80;21.70;25.80;93460.00;;;;10438589;28;45667;-72
2021/01/07 10:22:54;;;;;;;2.53;1.90;;;22.80;21.60;25.80;93462.00;;;;10437273;28;74585;-72
2021/01/07 10:27:55;;;;;;;2.65;1.90;;;22.80;21.70;25.80;93459.00;;;;10438098;28;48095;-72
2021/01/07 10:32:56;;;;;;;2.88;2.28;;;22.80;21.70;25.80;93461.00;;;;10437784;28;47096;-72
2021/01/07 10:37:58;;;;;;;2.10;1.90;;;22.80;22.40;25.80;93463.00;;;;10437940;28;47443;-72
2021/01/07 10:43:00;;;;;;;3.20;2.47;;;22.70;21.70;25.80;93452.00;;;;10436909;28;47088;-72
2021/01/07 10:48:08;;;;;;;2.85;2.15;;;22.80;21.70;25.80;93457.00;;;;10437332;28;47018;-72
2021/01/07 10:53:13;;;;;;;2.53;2.28;;;22.80;21.70;25.80;93461.00;;;;10436845;28;46739;-74
2021/01/07 10:58:16;;;;;;;2.70;2.30;;;22.80;21.70;25.80;93447.00;;;;10439284;28;46274;-72
2021/01/07 11:03:56;;;;;;;3.25;2.30;;;22.80;21.70;26.00;93444.00;;;;10439039;28;45418;-75
2021/01/07 11:09:14;;;;;;;2.50;1.70;;;22.80;22.70;25.90;93447.00;;;;10441008;28;56381;-75
2021/01/07 11:14:37;;;;;;;3.05;2.03;;;22.80;22.50;25.90;93430.00;;;;10439877;28;48072;-74
2021/01/07 11:19:41;;;;;;;2.63;1.83;;;22.80;22.60;25.80;93424.00;;;;10440134;28;47144;-74
2021/01/07 11:24:43;;;;;;;2.70;2.03;;;22.80;22.50;25.80;93426.00;;;;10440110;28;47727;-79
2021/01/07 11:29:44;;;;;;;2.75;1.88;;;22.70;22.40;25.90;93418.00;;;;10441655;28;60242;-76
2021/01/07 11:34:45;;;;;;;2.38;2.08;;;22.80;23.20;26.00;93420.00;;;;10437780;28;48152;-74
2021/01/07 11:39:58;;;;;;;2.83;2.30;;;22.90;23.40;26.00;93398.00;;;;10437974;28;46737;-74
2021/01/07 11:45:05;;;;;;;2.58;2.28;;;22.90;23.20;25.90;93411.00;;;;10438718;28;47577;-73
2021/01/07 11:50:08;;;;;;;2.35;2.15;;;22.90;23.10;25.90;93400.00;;;;10438076;28;47244;-75
2021/01/07 11:55:12;;;;;;;2.65;2.08;;;22.90;22.90;25.90;93391.00;;;;10443983;28;45524;-73
2021/01/07 12:00:16;;;;;;;3.08;2.35;;;22.80;22.70;25.90;93396.00;;;;10444878;28;47118;-74
2021/01/07 12:05:21;;;;;;;3.42;2.60;;;22.80;22.60;25.80;93381.00;;;;10446081;28;48623;-74
2021/01/07 12:10:23;;;;;;;3.63;2.72;;;22.80;22.50;25.80;93383.00;;;;10445781;28;47529;-74
2021/01/07 12:15:25;;;;;;;3.60;2.30;;;22.80;22.50;25.80;93372.00;;;;10445538;28;47417;-74
2021/01/07 12:20:26;;;;;;;3.28;2.60;;;22.80;22.40;25.80;93374.00;;;;10445460;28;45404;-74
2021/01/07 12:25:27;;;;;;;3.83;2.28;;;22.80;22.40;25.80;93366.00;;;;10444980;28;48197;-74
2021/01/07 12:30:30;;;;;;;3.47;2.47;;;22.70;22.30;25.80;93368.00;;;;10445084;28;48022;-73
2021/01/07 12:35:36;;;;;;;3.30;2.28;;;22.80;23.00;25.80;93368.00;;;;10444467;28;65942;-74
2021/01/07 12:40:40;;;;;;;3.00;2.17;;;22.70;22.30;25.80;93364.00;;;;10444972;28;46329;-74
2021/01/07 12:45:44;;;;;;;3.17;2.53;;;22.80;22.30;25.80;93364.00;;;;10444192;28;47942;-73
2021/01/07 12:50:46;;;;;;;3.80;2.38;;;22.80;22.30;25.80;93359.00;;;;10441356;28;48354;-73
2021/01/07 12:55:47;;;;;;;4.15;2.75;;;22.80;22.30;25.70;93354.00;;;;10441460;28;55162;-73
2021/01/07 13:01:01;;;;;;;3.10;2.20;;;22.70;22.20;25.80;93354.00;;;;10441003;28;45580;-73
2021/01/07 13:06:04;;;;;;;2.80;2.22;;;22.80;22.20;25.80;93360.00;;;;10441597;28;45477;-77
2021/01/07 13:11:09;;;;;;;4.22;2.22;;;22.80;22.20;25.80;93360.00;;;;10444133;28;54881;-74
2021/01/07 13:16:10;;;;;;;2.88;2.00;;;22.80;22.30;25.90;93362.00;;;;10438892;28;49973;-68
2021/01/07 13:21:10;;;;;;;5.05;2.25;;;22.90;23.60;26.10;93358.00;;;;10438294;28;48274;-68
2021/01/07 13:26:13;;;;;;;3.95;2.00;;;23.00;24.50;26.20;93357.00;;;;10420274;28;61469;-68
2021/01/07 13:31:17;;;;;;;3.72;2.00;;;23.10;24.60;26.40;93360.00;;;;10437082;28;47045;-68
2021/01/07 13:36:24;;;;;;;3.80;1.98;;;23.20;25.80;26.60;93364.00;;;;10435993;28;47279;-67
2021/01/07 13:41:32;;;;;;;2.70;1.70;;;23.40;25.00;26.60;93363.00;;;;10451845;28;47231;-71
2021/01/07 13:46:42;;;;;;;4.35;1.80;;;23.50;24.70;26.60;93366.00;;;;10435430;28;47539;-68
2021/01/07 13:51:52;;;;;;;8.18;1.80;;;23.50;24.30;26.50;93364.00;;;;10481845;22;46757;-73
2021/01/07 13:56:53;;;;;;;7.03;1.63;;;23.40;23.80;26.40;93361.00;;;;10476031;28;53783;-73
2021/01/07 14:01:54;;;;;;;6.25;1.83;;;23.40;23.60;26.40;93370.00;;;;10475536;28;75012;-72
2021/01/07 14:06:57;;;;;;;3.80;1.42;;;23.40;23.40;26.40;93357.00;;;;10476149;28;75464;-72
2021/01/07 14:12:02;;;;;;;4.85;1.58;;;23.30;23.30;26.30;93356.00;;;;10475647;28;74741;-72
2021/01/07 14:17:03;;;;;;;2.78;1.15;;;23.30;23.20;26.30;93364.00;;;;10476863;28;45390;-72
2021/01/07 14:22:04;;;;;;;2.97;1.45;;;23.30;23.10;26.20;93368.00;;;;10474841;28;73211;-72
2021/01/07 14:27:33;;;;;;;2.42;1.20;;;23.20;22.90;26.40;93375.00;;;;10477619;28;45342;-72
2021/01/07 14:32:35;;;;;;;3.60;1.40;;;23.20;22.90;26.20;93375.00;;;;10475647;28;46357;-72
2021/01/07 14:37:39;;;;;;;3.88;1.50;;;23.20;22.80;26.20;93376.00;;;;10475622;28;53491;-72
2021/01/07 14:42:41;;;;;;;2.60;1.40;;;23.20;22.80;26.20;93376.00;;;;10476522;28;46277;-72
2021/01/07 14:47:42;;;;;;;3.15;1.33;;;23.20;22.70;26.10;93377.00;;;;10475823;28;54831;-72
2021/01/07 14:52:47;;;;;;;1.70;1.02;;;23.20;22.70;26.20;93385.00;;;;10475641;28;47263;-73
2021/01/07 14:57:53;;;;;;;2.13;1.02;;;23.10;22.60;26.20;93380.00;;;;10492466;28;46884;-72
2021/01/07 15:03:00;;;;;;;1.48;1.00;;;23.10;22.60;26.20;93388.00;;;;10476058;28;46419;-72
2021/01/07 15:08:16;;;;;;;2.05;1.20;;;23.10;22.50;26.20;93389.00;;;;10474731;28;46787;-72
2021/01/07 15:13:19;;;;;;;1.58;0.93;;;23.10;22.50;26.10;93395.00;;;;10475506;28;46592;-73
2021/01/07 15:18:37;;;;;;;1.17;1.00;;;23.10;22.50;26.20;93390.00;;;;10473678;28;47482;-72
2021/01/07 15:24:04;;;;;;;1.65;1.00;;;23.10;22.50;26.20;93396.00;;;;10474736;28;46552;-73
2021/01/07 15:29:09;;;;;;;1.63;1.00;;;23.10;22.40;26.20;93402.00;;;;10479444;28;47082;-72
2021/01/07 15:34:31;;;;;;;1.38;1.00;;;23.10;22.40;26.20;93388.00;;;;10481233;28;53994;-73
2021/01/07 15:40:14;;;;;;;1.17;0.93;;;23.10;22.30;26.30;93395.00;;;;10481328;28;47202;-72
2021/01/07 15:45:23;;;;;;;1.20;0.75;;;23.10;22.40;26.10;93381.00;;;;10481670;28;45453;-72
2021/01/07 15:50:27;;;;;;;0.88;0.77;;;23.10;22.30;26.10;93382.00;;;;10480860;28;47661;-72
2021/01/07 15:56:18;;;;;;;0.98;0.80;;;23.10;22.20;26.20;93378.00;;;;10480591;28;45664;-72
2021/01/07 16:01:26;;;;;;;1.23;0.90;;;23.10;22.20;26.10;93398.00;;;;10452533;28;45554;-72
2021/01/07 16:06:34;;;;;;;1.08;0.90;;;23.00;22.10;26.10;93392.00;;;;10480935;28;54243;-72
2021/01/07 16:11:37;;;;;;;0.88;0.70;;;23.00;22.10;26.10;93394.00;;;;10480834;28;45508;-72
2021/01/07 16:16:38;;;;;;;0.80;0.70;;;23.10;22.10;26.10;93413.00;;;;10479668;28;45669;-72
2021/01/07 16:22:15;;;;;;;1.02;0.80;;;23.00;21.90;26.20;93398.00;;;;10474938;28;75411;-72
2021/01/07 16:27:23;;;;;;;1.20;0.90;;;23.10;22.10;26.10;93415.00;;;;10480661;28;45647;-73
2021/01/07 16:32:24;;;;;;;1.08;0.80;;;23.10;22.00;26.00;93413.00;;;;10479514;28;47933;-72
2021/01/07 16:37:25;;;;;;;1.63;1.20;;;23.10;22.00;26.10;93412.00;;;;10478658;28;75676;-72
2021/01/07 16:42:30;;;;;;;1.20;1.00;;;23.00;21.90;26.10;93408.00;;;;10479123;28;47161;-72
2021/01/07 16:47:31;;;;;;;1.30;1.13;;;23.10;22.00;26.00;93415.00;;;;10479301;28;45453;-72
2021/01/07 16:52:32;;;;;;;1.30;1.00;;;23.00;21.80;26.00;93409.00;;;;10478928;28;45326;-74
2021/01/07 16:57:33;;;;;;;1.20;1.10;;;23.00;21.90;26.00;93391.00;;;;10496540;28;47054;-73
2021/01/07 17:02:34;;;;;;;1.95;1.40;;;23.00;21.90;26.00;93392.00;;;;10478650;28;56262;-72
2021/01/07 17:07:34;;;;;;;2.50;1.60;;;23.00;21.90;26.00;93414.00;;;;10477980;28;74833;-72
2021/01/07 17:12:37;;;;;;;1.70;1.27;;;23.00;21.90;26.00;93424.00;;;;10479758;28;45516;-72
2021/01/07 17:17:37;;;;;;;1.92;1.38;;;23.00;21.90;26.10;93426.00;;;;10479192;28;45524;-73
2021/01/07 17:22:38;;;;;;;1.40;1.10;;;23.10;21.90;26.10;93416.00;;;;10476519;28;75181;-73
2021/01/07 17:27:39;;;;;;;1.80;1.48;;;23.10;21.90;26.10;93413.00;;;;10476632;28;47650;-74
2021/01/07 17:32:43;;;;;;;1.88;1.25;;;23.10;21.80;26.10;93412.00;;;;10476109;28;45470;-73
2021/01/07 17:37:43;;;;;;;1.30;1.13;;;23.10;21.90;26.10;93430.00;;;;10478038;28;45318;-73
2021/01/07 17:42:44;;;;;;;1.55;1.20;;;23.10;21.80;26.10;93424.00;;;;10474756;28;73680;-73
2021/01/07 17:47:45;;;;;;;1.50;1.30;;;23.10;21.80;26.10;93426.00;;;;10474601;28;75559;-73
2021/01/07 17:52:46;;;;;;;1.67;1.35;;;23.10;21.80;26.10;93416.00;;;;10474104;28;45404;-73
2021/01/07 17:57:49;;;;;;;1.88;1.38;;;23.10;21.80;26.10;93434.00;;;;10492838;28;62537;-73
2021/01/07 18:02:49;;;;;;;2.17;1.30;;;23.10;21.80;26.10;93426.00;;;;10476011;28;47393;-73
2021/01/07 18:07:50;;;;;;;1.55;1.33;;;23.10;21.80;26.10;93426.00;;;;10474100;28;47302;-73
2021/01/07 18:12:50;;;;;;;1.70;1.30;;;23.10;21.80;26.10;93433.00;;;;10490623;28;73709;-73
2021/01/07 18:17:51;;;;;;;1.60;1.30;;;23.10;21.80;26.10;93436.00;;;;10473259;28;75040;-74
2021/01/07 18:22:52;;;;;;;1.88;1.58;;;23.10;21.80;26.10;93436.00;;;;10475258;28;74316;-73
2021/01/07 18:27:52;;;;;;;1.60;1.48;;;23.10;21.80;26.10;93437.00;;;;10475977;28;75593;-74
2021/01/07 18:32:53;;;;;;;1.60;1.40;;;23.10;21.70;26.10;93437.00;;;;10473891;28;75493;-73
2021/01/07 18:37:54;;;;;;;1.60;1.20;;;23.10;21.70;26.10;93432.00;;;;10476669;28;47417;-74
2021/01/07 18:42:55;;;;;;;1.50;1.30;;;23.10;21.70;26.00;93434.00;;;;10475919;28;57197;-73
2021/01/07 18:47:55;;;;;;;1.92;1.42;;;23.10;21.70;26.10;93448.00;;;;10475276;28;74273;-73
2021/01/07 18:52:56;;;;;;;1.65;1.45;;;23.10;21.70;26.10;93430.00;;;;10474495;28;45413;-73
2021/01/07 18:57:57;;;;;;;1.35;1.25;;;23.10;21.70;26.10;93447.00;;;;10473932;28;75203;-73
2021/01/07 19:02:57;;;;;;;1.40;1.20;;;23.10;21.70;26.10;93437.00;;;;10416612;28;48084;-74
2021/01/07 19:07:58;;;;;;;1.70;1.27;;;23.10;21.70;26.10;93434.00;;;;10433288;28;75294;-72
2021/01/07 19:13:00;;;;;;;1.33;1.10;;;23.10;21.70;26.00;93450.00;;;;10416434;28;52791;-73
2021/01/07 19:18:09;;;;;;;1.58;1.17;;;23.10;21.80;26.10;93438.00;;;;10434066;28;45390;-74
2021/01/07 19:23:12;;;;;;;1.20;1.10;;;23.10;21.80;26.10;93446.00;;;;10433451;28;47383;-73
2021/01/07 19:28:12;;;;;;;1.48;1.30;;;23.10;21.80;26.10;93438.00;;;;10433752;28;45583;-73
2021/01/07 19:33:14;;;;;;;2.03;1.20;;;23.10;21.80;26.10;93439.00;;;;10432234;28;63552;-74
2021/01/07 19:38:15;;;;;;;1.58;1.20;;;23.10;21.80;26.10;93439.00;;;;10433085;28;46970;-73
2021/01/07 19:43:16;;;;;;;1.23;0.93;;;23.10;21.70;26.00;93441.00;;;;10432948;28;47691;-73
2021/01/07 19:48:17;;;;;;;1.60;1.20;;;23.10;21.80;26.00;93440.00;;;;10433016;28;47101;-73
2021/01/07 19:53:18;;;;;;;1.50;1.30;;;23.10;21.70;26.00;93428.00;;;;10445366;22;75246;-73
2021/01/07 19:58:18;;;;;;;1.27;1.17;;;23.10;21.70;26.10;93442.00;;;;10430660;28;67827;-75
2021/01/07 20:03:19;;;;;;;1.48;1.20;;;23.10;21.70;26.10;93435.00;;;;10448564;28;54319;-73
2021/01/07 20:08:20;;;;;;;1.63;1.30;;;23.10;21.70;26.00;93446.00;;;;10432063;28;46484;-73
2021/01/07 20:13:21;;;;;;;1.45;1.05;;;23.00;21.60;26.00;93442.00;;;;10431249;28;75412;-73
2021/01/07 20:18:21;;;;;;;1.70;1.25;;;23.00;21.60;26.00;93445.00;;;;10437306;28;74515;-73
2021/01/07 20:23:22;;;;;;;1.15;1.05;;;23.00;21.50;26.00;93462.00;;;;10436228;28;53771;-73
2021/01/07 20:28:23;;;;;;;1.50;1.30;;;23.10;21.60;26.00;93455.00;;;;10435719;28;75168;-73
2021/01/07 20:33:23;;;;;;;1.25;1.05;;;23.00;21.60;26.00;93459.00;;;;10436076;28;47163;-73
2021/01/07 20:38:25;;;;;;;1.30;1.15;;;23.00;21.60;26.00;93455.00;;;;10435819;28;74334;-73
2021/01/07 20:43:26;;;;;;;1.65;1.10;;;23.00;21.50;26.00;93451.00;;;;10435868;28;47171;-74
2021/01/07 20:48:27;;;;;;;1.40;1.10;;;23.00;21.60;26.00;93453.00;;;;10436465;28;48048;-73
2021/01/07 20:53:28;;;;;;;1.67;1.30;;;23.00;21.60;26.00;93452.00;;;;10434605;28;76155;-73
2021/01/07 20:58:28;;;;;;;1.60;1.10;;;23.00;21.50;26.00;93443.00;;;;10434813;28;74196;-74
2021/01/07 21:03:30;;;;;;;1.52;1.30;;;23.10;21.60;26.00;93452.00;;;;10435156;28;47140;-74
2021/01/07 21:08:32;;;;;;;1.40;1.08;;;23.00;21.50;26.00;93443.00;;;;10435550;28;45379;-74
2021/01/07 21:13:33;;;;;;;1.45;1.23;;;23.00;21.50;26.00;93435.00;;;;10435354;28;53747;-74
2021/01/07 21:18:33;;;;;;;1.50;1.30;;;23.10;21.60;26.00;93447.00;;;;10435394;28;68470;-74
2021/01/07 21:23:35;;;;;;;1.77;1.15;;;23.00;21.50;26.10;93447.00;;;;10417947;28;75409;-73
2021/01/07 21:28:36;;;;;;;1.48;1.05;;;23.00;22.10;26.00;93439.00;;;;10436692;28;46498;-72
2021/01/07 21:33:36;;;;;;;1.27;1.02;;;23.00;21.50;26.00;93438.00;;;;10435681;28;45441;-73
2021/01/07 21:38:37;;;;;;;1.17;0.90;;;23.10;21.60;26.00;93439.00;;;;10436348;28;75539;-73
2021/01/07 21:43:39;;;;;;;1.20;1.00;;;23.00;21.50;26.00;93461.00;;;;10417236;28;75740;-73
2021/01/07 21:48:39;;;;;;;1.10;1.00;;;23.00;22.10;26.00;93442.00;;;;10418523;28;47219;-73
2021/01/07 21:53:40;;;;;;;1.20;1.10;;;23.00;21.50;26.00;93453.00;;;;10417415;28;46639;-73
2021/01/07 21:58:41;;;;;;;1.30;1.10;;;23.00;21.50;26.00;93439.00;;;;10434818;28;75149;-73
2021/01/07 22:03:41;;;;;;;1.33;1.13;;;23.00;21.40;26.00;93455.00;;;;10418470;28;73671;-74
2021/01/07 22:08:42;;;;;;;1.27;1.10;;;22.90;21.40;26.00;93442.00;;;;10418457;28;74763;-74
2021/01/07 22:13:43;;;;;;;1.35;1.10;;;23.00;21.40;25.90;93462.00;;;;10435582;28;47494;-72